Time;durP1;ratioP1;P1;durP2;ratioP2;P2;SDS_P1;SDS_P2;PMS_P1;PMS_P2;Temp;Humidity;BMP_temperature;BMP_pressure;BME280_temperature;BME280_humidity;BME280_pressure;Samples;Min_cycle;Max_cycle;Signal;HPM_P1;HPM_P2
2022/10/03 00:01:47;;;;;;;8.70;2.07;;;;;;;-145.23;100.00;58621.06;4989667;28;20754;-52
2022/10/03 00:04:26;;;;;;;11.77;3.10;;;;;;;-145.23;100.00;58621.06;4984127;28;20252;-52
2022/10/03 00:07:03;;;;;;;10.77;2.73;;;;;;;-145.23;100.00;58621.06;5004242;28;20221;-52
2022/10/03 00:09:48;;;;;;;7.53;2.37;;;;;;;-145.23;100.00;58621.06;5003400;28;20256;-51
2022/10/03 00:12:34;;;;;;;6.80;2.57;;;;;;;-145.23;100.00;58621.06;4987395;28;20234;-52
2022/10/03 00:15:04;;;;;;;18.70;4.37;;;;;;;-145.23;100.00;58621.06;4988193;28;20899;-51
2022/10/03 00:17:39;;;;;;;7.47;2.60;;;;;;;-145.23;100.00;58621.06;5001975;28;20233;-52
2022/10/03 00:20:16;;;;;;;6.37;2.50;;;;;;;-145.23;100.00;58621.06;4994628;28;20781;-52
2022/10/03 00:22:48;;;;;;;10.10;2.87;;;;;;;-145.23;100.00;58621.06;4986234;28;20252;-52
2022/10/03 00:25:26;;;;;;;8.07;2.60;;;;;;;-145.23;100.00;58621.06;4988478;28;20237;-52
2022/10/03 00:28:13;;;;;;;11.30;3.17;;;;;;;-145.23;100.00;58621.06;4992307;28;20249;-52
2022/10/03 00:31:04;;;;;;;7.83;2.87;;;;;;;-145.23;100.00;58621.06;4988201;28;20252;-52
2022/10/03 00:33:40;;;;;;;5.67;2.70;;;;;;;-145.23;100.00;58621.06;4987249;28;20408;-52
2022/10/03 00:36:08;;;;;;;10.53;2.73;;;;;;;-145.23;100.00;58621.06;5000900;28;20263;-52
2022/10/03 00:38:53;;;;;;;8.53;2.80;;;;;;;-145.23;100.00;58621.06;4998128;28;20242;-52
2022/10/03 00:41:34;;;;;;;12.73;3.00;;;;;;;-145.23;100.00;58621.06;4993825;28;20601;-50
2022/10/03 00:44:18;;;;;;;9.73;3.03;;;;;;;-145.23;100.00;58621.06;4989535;28;20260;-51
2022/10/03 00:47:07;;;;;;;8.33;2.73;;;;;;;-145.23;100.00;58621.06;5002279;28;20232;-53
2022/10/03 00:49:58;;;;;;;5.37;2.40;;;;;;;-145.23;100.00;58621.06;4993964;28;20260;-51
2022/10/03 00:52:54;;;;;;;5.53;2.83;;;;;;;-145.23;100.00;58621.06;4992259;28;20229;-52
2022/10/03 00:55:30;;;;;;;11.43;3.43;;;;;;;-145.23;100.00;58621.06;4999743;28;20248;-53
2022/10/03 00:58:07;;;;;;;6.73;3.30;;;;;;;-145.23;100.00;58621.06;4996439;28;20244;-51
2022/10/03 01:00:35;;;;;;;6.47;2.43;;;;;;;-145.23;100.00;58621.06;5005350;28;20236;-52
2022/10/03 01:03:31;;;;;;;11.37;2.73;;;;;;;-145.23;100.00;58621.06;5002060;28;20235;-52
2022/10/03 01:06:12;;;;;;;12.27;2.50;;;;;;;-145.23;100.00;58621.06;4997611;28;20241;-53
2022/10/03 01:08:57;;;;;;;5.33;2.53;;;;;;;-145.23;100.00;58621.06;4999310;28;20237;-53
2022/10/03 01:11:37;;;;;;;14.67;3.33;;;;;;;-145.23;100.00;58621.06;5005779;28;20320;-52
2022/10/03 01:14:15;;;;;;;9.53;2.80;;;;;;;-145.23;100.00;58621.06;4999339;28;20246;-52
2022/10/03 01:16:58;;;;;;;9.90;3.20;;;;;;;-145.23;100.00;58621.06;5000007;28;20233;-53
2022/10/03 01:19:39;;;;;;;8.83;2.57;;;;;;;-145.23;100.00;58621.06;5007553;28;20589;-51
2022/10/03 01:22:26;;;;;;;7.77;1.93;;;;;;;-145.23;100.00;58621.06;4998216;28;20812;-54
2022/10/03 01:25:01;;;;;;;7.50;3.00;;;;;;;-145.23;100.00;58621.06;4993974;28;20287;-51
2022/10/03 01:30:21;;;;;;;8.43;2.17;;;;;;;-145.23;100.00;58621.06;5007849;28;20236;-52
2022/10/03 01:30:34;;;;;;;9.63;2.17;;;;;;;-145.23;100.00;58621.06;5003514;28;20349;-53
2022/10/03 01:33:09;;;;;;;10.30;2.53;;;;;;;-145.23;100.00;58621.06;4991767;28;20241;-51
2022/10/03 01:35:44;;;;;;;8.67;2.50;;;;;;;-145.23;100.00;58621.06;4998196;28;20229;-52
2022/10/03 01:38:19;;;;;;;6.47;3.00;;;;;;;-145.23;100.00;58621.06;5002973;28;20665;-51
2022/10/03 01:40:51;;;;;;;11.37;2.33;;;;;;;-145.23;100.00;58621.06;4994706;28;20233;-51
2022/10/03 01:43:21;;;;;;;7.20;2.57;;;;;;;-145.23;100.00;58621.06;5001011;28;20248;-54
2022/10/03 01:45:55;;;;;;;13.87;3.40;;;;;;;-145.23;100.00;58621.06;5003304;28;20661;-52
2022/10/03 01:48:29;;;;;;;10.33;2.73;;;;;;;-145.23;100.00;58621.06;5000457;28;20229;-51
2022/10/03 01:51:01;;;;;;;6.80;2.37;;;;;;;-145.23;100.00;58621.06;4986391;28;20241;-52
2022/10/03 01:53:36;;;;;;;5.33;1.90;;;;;;;-145.23;100.00;58621.06;4995233;28;20625;-53
2022/10/03 01:56:08;;;;;;;7.80;2.90;;;;;;;-145.23;100.00;58621.06;4999004;28;20237;-52
2022/10/03 01:58:46;;;;;;;9.90;3.00;;;;;;;-145.23;100.00;58621.06;5004734;28;20632;-51
2022/10/03 02:01:21;;;;;;;10.93;2.17;;;;;;;-145.23;100.00;58621.06;5006521;28;20240;-52
2022/10/03 02:03:55;;;;;;;8.53;2.33;;;;;;;-145.23;100.00;58621.06;5011782;28;20287;-51
2022/10/03 02:06:30;;;;;;;11.30;3.00;;;;;;;-145.23;100.00;58621.06;4997920;28;20287;-51
2022/10/03 02:09:02;;;;;;;9.13;3.00;;;;;;;-145.23;100.00;58621.06;4996520;28;20241;-52
2022/10/03 02:11:33;;;;;;;11.23;3.23;;;;;;;-145.23;100.00;58621.06;4998860;28;20245;-52
2022/10/03 02:14:12;;;;;;;7.93;2.60;;;;;;;-145.23;100.00;58621.06;5002778;28;20808;-51
2022/10/03 02:16:43;;;;;;;7.37;1.93;;;;;;;-145.23;100.00;58621.06;4998924;28;20291;-52
2022/10/03 02:19:20;;;;;;;9.03;2.33;;;;;;;-145.23;100.00;58621.06;5001744;28;20251;-52
2022/10/03 02:21:48;;;;;;;5.47;2.33;;;;;;;-145.23;100.00;58621.06;4993524;28;20288;-52
2022/10/03 02:24:27;;;;;;;7.30;2.23;;;;;;;-145.23;100.00;58621.06;4995305;28;20882;-54
2022/10/03 02:27:13;;;;;;;6.07;2.13;;;;;;;-145.23;100.00;58621.06;5004558;28;20233;-52
2022/10/03 02:29:53;;;;;;;9.43;3.00;;;;;;;-145.23;100.00;58621.06;4993653;28;20233;-53
2022/10/03 02:32:45;;;;;;;9.07;2.23;;;;;;;-145.23;100.00;58621.06;4991978;28;20234;-51
2022/10/03 02:35:48;;;;;;;7.23;2.80;;;;;;;-145.23;100.00;58621.06;4985441;28;20252;-51
2022/10/03 02:38:40;;;;;;;15.37;2.50;;;;;;;-145.23;100.00;58621.06;4995077;28;20225;-52
2022/10/03 02:41:31;;;;;;;7.57;2.20;;;;;;;-145.23;100.00;58621.06;5001078;28;20324;-52
2022/10/03 02:44:27;;;;;;;9.73;3.10;;;;;;;-145.23;100.00;58621.06;4988934;28;20245;-52
2022/10/03 02:47:23;;;;;;;9.73;2.10;;;;;;;-145.23;100.00;58621.06;4991539;28;20307;-51
2022/10/03 02:50:38;;;;;;;6.57;2.67;;;;;;;-145.23;100.00;58621.06;4994114;28;20789;-52
2022/10/03 02:53:41;;;;;;;6.07;2.10;;;;;;;-145.23;100.00;58621.06;5002496;28;20237;-52
2022/10/03 02:56:40;;;;;;;9.67;2.33;;;;;;;-145.23;100.00;58621.06;4998834;28;20276;-52
2022/10/03 02:59:27;;;;;;;7.30;2.40;;;;;;;-145.23;100.00;58621.06;4996346;28;20237;-53
2022/10/03 03:02:12;;;;;;;17.50;3.20;;;;;;;-145.23;100.00;58621.06;5001335;28;20613;-52
2022/10/03 03:05:23;;;;;;;12.63;3.07;;;;;;;-145.23;100.00;58621.06;4990789;28;20295;-52
2022/10/03 03:08:14;;;;;;;9.87;2.87;;;;;;;-145.23;100.00;58621.06;4946590;28;20245;-53
2022/10/03 03:11:08;;;;;;;6.47;2.77;;;;;;;-145.23;100.00;58621.06;4986744;28;20269;-53
2022/10/03 03:14:12;;;;;;;11.13;2.73;;;;;;;-145.23;100.00;58621.06;4968267;28;20245;-53
2022/10/03 03:16:57;;;;;;;12.83;2.67;;;;;;;-145.23;100.00;58621.06;4935279;29;20275;-51
2022/10/03 03:19:45;;;;;;;10.87;2.73;;;;;;;-145.23;100.00;58621.06;5008187;28;20247;-52
2022/10/03 03:22:24;;;;;;;12.20;3.07;;;;;;;-145.23;100.00;58621.06;4993163;28;20241;-53
2022/10/03 03:25:08;;;;;;;11.60;3.87;;;;;;;-145.23;100.00;58621.06;4988079;28;20341;-52
2022/10/03 03:27:47;;;;;;;6.23;2.53;;;;;;;-145.23;100.00;58621.06;5002490;28;20237;-53
2022/10/03 03:30:16;;;;;;;6.43;2.70;;;;;;;-145.23;100.00;58621.06;4989428;28;20308;-52
2022/10/03 03:32:52;;;;;;;13.17;3.07;;;;;;;-145.23;100.00;58621.06;4985708;28;20730;-51
2022/10/03 03:35:28;;;;;;;7.97;1.97;;;;;;;-145.23;100.00;58621.06;4984874;28;20299;-52
2022/10/03 03:38:02;;;;;;;9.50;2.07;;;;;;;-145.23;100.00;58621.06;4984207;28;20610;-52
2022/10/03 03:40:38;;;;;;;9.60;2.93;;;;;;;-145.23;100.00;58621.06;4984539;28;20238;-51
2022/10/03 03:43:20;;;;;;;3.67;2.17;;;;;;;-145.23;100.00;58621.06;4987513;28;20234;-51
2022/10/03 03:45:58;;;;;;;5.30;2.47;;;;;;;-145.23;100.00;58621.06;4984394;28;20232;-53
2022/10/03 03:48:37;;;;;;;13.80;2.37;;;;;;;-145.23;100.00;58621.06;5001880;28;20316;-52
2022/10/03 03:51:15;;;;;;;11.73;2.23;;;;;;;-145.23;100.00;58621.06;5001602;28;20283;-52
2022/10/03 03:54:12;;;;;;;8.23;2.40;;;;;;;-145.23;100.00;58621.06;4984759;28;20241;-53
2022/10/03 03:57:03;;;;;;;6.73;2.70;;;;;;;-145.23;100.00;58621.06;4927488;28;20243;-53
2022/10/03 03:59:41;;;;;;;10.87;2.47;;;;;;;-145.23;100.00;58621.06;4991940;28;20279;-53
2022/10/03 04:02:25;;;;;;;8.37;2.50;;;;;;;-145.23;100.00;58621.06;4993423;28;20265;-53
2022/10/03 04:05:01;;;;;;;7.37;2.40;;;;;;;-145.23;100.00;58621.06;4997467;28;20241;-53
2022/10/03 04:07:39;;;;;;;6.73;2.70;;;;;;;-145.23;100.00;58621.06;4984859;28;20240;-53
2022/10/03 04:10:18;;;;;;;5.07;2.43;;;;;;;-145.23;100.00;58621.06;5002951;28;20241;-53
2022/10/03 04:13:02;;;;;;;5.68;2.63;;;;;;;-145.23;100.00;58621.06;4999022;28;20224;-52
2022/10/03 04:15:48;;;;;;;9.87;2.10;;;;;;;-145.23;100.00;58621.06;5001270;28;20233;-51
2022/10/03 04:21:35;;;;;;;5.10;2.60;;;;;;;-145.23;100.00;58621.06;4994244;28;20253;-54
2022/10/03 04:24:29;;;;;;;8.17;2.90;;;;;;;-145.23;100.00;58621.06;4994098;28;20237;-52
2022/10/03 04:27:11;;;;;;;5.43;2.43;;;;;;;-145.23;100.00;58621.06;4989037;28;20230;-53
2022/10/03 04:29:47;;;;;;;5.60;2.37;;;;;;;-145.23;100.00;58621.06;4985134;28;20299;-53
2022/10/03 04:32:56;;;;;;;11.43;3.00;;;;;;;-145.23;100.00;58621.06;4993070;28;20237;-52
2022/10/03 04:35:44;;;;;;;2.77;1.40;;;;;;;-145.23;100.00;58621.06;5001625;28;20233;-52
2022/10/03 04:38:15;;;;;;;10.87;2.57;;;;;;;-145.23;100.00;58621.06;4984838;28;20241;-51
2022/10/03 04:40:52;;;;;;;7.63;2.67;;;;;;;-145.23;100.00;58621.06;5001507;28;20233;-51
2022/10/03 04:43:29;;;;;;;6.50;2.83;;;;;;;-145.23;100.00;58621.06;4987626;28;20235;-53
2022/10/03 04:46:19;;;;;;;5.73;2.33;;;;;;;-145.23;100.00;58621.06;4998921;28;20229;-51
2022/10/03 04:48:53;;;;;;;10.40;2.70;;;;;;;-145.23;100.00;58621.06;4983418;28;20226;-52
2022/10/03 04:51:26;;;;;;;14.73;3.07;;;;;;;-145.23;100.00;58621.06;4995185;28;20244;-52
2022/10/03 04:53:57;;;;;;;11.67;2.60;;;;;;;-145.23;100.00;58621.06;4990556;28;20237;-52
2022/10/03 04:56:34;;;;;;;7.97;2.60;;;;;;;-145.23;100.00;58621.06;4992432;28;20321;-53
2022/10/03 04:59:08;;;;;;;8.67;2.47;;;;;;;-145.23;100.00;58621.06;4990253;28;20253;-53
2022/10/03 05:01:41;;;;;;;12.07;2.73;;;;;;;-145.23;100.00;58621.06;4999250;28;20746;-53
2022/10/03 05:04:19;;;;;;;7.27;2.13;;;;;;;-145.23;100.00;58621.06;4990304;28;20242;-53
2022/10/03 05:06:55;;;;;;;5.20;1.97;;;;;;;-145.23;100.00;58621.06;4988604;28;20953;-52
2022/10/03 05:09:31;;;;;;;7.60;2.00;;;;;;;-145.23;100.00;58621.06;4986114;28;20244;-53
2022/10/03 05:12:06;;;;;;;4.67;2.10;;;;;;;-145.23;100.00;58621.06;4997474;28;21655;-52
2022/10/03 05:14:49;;;;;;;8.57;2.33;;;;;;;-145.23;100.00;58621.06;5001041;28;20233;-52
2022/10/03 05:17:23;;;;;;;11.90;2.33;;;;;;;-145.23;100.00;58621.06;4982510;28;20261;-52
2022/10/03 05:20:15;;;;;;;8.10;2.40;;;;;;;-145.23;100.00;58621.06;4984011;28;20245;-52
2022/10/03 05:22:48;;;;;;;4.10;1.97;;;;;;;-145.23;100.00;58621.06;4982492;28;20274;-52
2022/10/03 05:25:34;;;;;;;7.40;2.70;;;;;;;-145.23;100.00;58621.06;4986678;28;20257;-50
2022/10/03 05:28:12;;;;;;;9.73;2.53;;;;;;;-145.23;100.00;58621.06;4992278;28;20622;-52
2022/10/03 05:30:44;;;;;;;3.83;1.77;;;;;;;-145.23;100.00;58621.06;4982452;28;20296;-53
2022/10/03 05:33:20;;;;;;;9.57;2.57;;;;;;;-145.23;100.00;58621.06;4987082;28;20317;-52
2022/10/03 05:35:55;;;;;;;7.93;2.60;;;;;;;-145.23;100.00;58621.06;4983166;28;20230;-53
2022/10/03 05:38:52;;;;;;;6.87;2.47;;;;;;;-145.23;100.00;58621.06;4986364;28;20326;-52
2022/10/03 05:41:21;;;;;;;11.70;3.37;;;;;;;-145.23;100.00;58621.06;4987174;28;20234;-51
2022/10/03 05:43:57;;;;;;;4.97;2.33;;;;;;;-145.23;100.00;58621.06;4986769;28;20304;-52
2022/10/03 05:46:48;;;;;;;8.13;2.20;;;;;;;-145.23;100.00;58621.06;4987445;28;20264;-51
2022/10/03 05:49:29;;;;;;;9.97;3.53;;;;;;;-145.23;100.00;58621.06;4986093;28;20234;-51
2022/10/03 05:52:13;;;;;;;8.70;2.23;;;;;;;-145.23;100.00;58621.06;5000173;28;20236;-52
2022/10/03 05:54:50;;;;;;;9.77;2.70;;;;;;;-145.23;100.00;58621.06;5000057;28;20237;-51
2022/10/03 05:57:31;;;;;;;6.73;2.67;;;;;;;-145.23;100.00;58621.06;5002690;28;20229;-52
2022/10/03 06:00:17;;;;;;;8.20;2.13;;;;;;;-145.23;100.00;58621.06;4991136;28;20241;-53
2022/10/03 06:03:12;;;;;;;6.47;3.17;;;;;;;-145.23;100.00;58621.06;5011393;28;20651;-54
2022/10/03 06:05:55;;;;;;;10.80;3.07;;;;;;;-145.23;100.00;58621.06;4995212;28;20242;-51
2022/10/03 06:08:47;;;;;;;7.20;1.83;;;;;;;-145.23;100.00;58621.06;4997476;28;20914;-51
2022/10/03 06:11:35;;;;;;;10.93;2.37;;;;;;;-145.23;100.00;58621.06;5016212;28;20236;-52
2022/10/03 06:14:40;;;;;;;6.60;2.27;;;;;;;-145.23;100.00;58621.06;4994989;28;20233;-53
2022/10/03 06:17:36;;;;;;;11.27;2.80;;;;;;;-145.23;100.00;58621.06;4981505;28;20324;-52
2022/10/03 06:20:21;;;;;;;5.90;2.40;;;;;;;-145.23;100.00;58621.06;4963188;28;20473;-52
2022/10/03 06:23:13;;;;;;;6.83;2.30;;;;;;;-145.23;100.00;58621.06;4999760;28;20317;-52
2022/10/03 06:26:18;;;;;;;7.17;2.10;;;;;;;-145.23;100.00;58621.06;4985760;28;20237;-52
2022/10/03 06:29:30;;;;;;;7.57;2.30;;;;;;;-145.23;100.00;58621.06;4985929;28;20240;-52
2022/10/03 06:32:24;;;;;;;4.47;1.40;;;;;;;-145.23;100.00;58621.06;4965457;28;20750;-52
2022/10/03 06:35:32;;;;;;;7.53;3.00;;;;;;;-145.23;100.00;58621.06;4986150;28;20240;-52
2022/10/03 06:38:37;;;;;;;7.03;2.40;;;;;;;-145.23;100.00;58621.06;4998089;28;20292;-53
2022/10/03 06:41:44;;;;;;;4.53;2.27;;;;;;;-145.23;100.00;58621.06;4985276;28;20792;-53
2022/10/03 06:44:28;;;;;;;5.93;1.93;;;;;;;-145.23;100.00;58621.06;4967144;28;20241;-52
2022/10/03 06:47:19;;;;;;;5.73;1.83;;;;;;;-145.23;100.00;58621.06;4991768;28;20419;-52
2022/10/03 06:50:15;;;;;;;5.43;2.00;;;;;;;-145.23;100.00;58621.06;5000483;28;20234;-51
2022/10/03 06:53:06;;;;;;;16.97;2.90;;;;;;;-145.23;100.00;58621.06;4992290;28;20238;-52
2022/10/03 06:55:51;;;;;;;8.33;2.70;;;;;;;-145.23;100.00;58621.06;5000652;28;20663;-52
2022/10/03 06:58:52;;;;;;;4.50;2.50;;;;;;;-145.23;100.00;58621.06;4995162;28;20766;-51
2022/10/03 07:01:42;;;;;;;7.55;2.13;;;;;;;-145.23;100.00;58621.06;4975242;28;20240;-52
2022/10/03 07:04:43;;;;;;;9.70;2.03;;;;;;;-145.23;100.00;58621.06;4978376;28;20228;-52
2022/10/03 07:07:26;;;;;;;14.40;2.43;;;;;;;-145.23;100.00;58621.06;4999065;28;20284;-52
2022/10/03 07:10:08;;;;;;;10.70;3.37;;;;;;;-145.23;100.00;58621.06;4989944;28;20233;-52
2022/10/03 07:13:03;;;;;;;10.40;3.95;;;;;;;-145.23;100.00;58621.06;4994705;28;20234;-52
2022/10/03 07:15:54;;;;;;;10.90;2.25;;;;;;;-145.23;100.00;58621.06;4995299;28;20284;-52
2022/10/03 07:18:50;;;;;;;8.60;2.03;;;;;;;-145.23;100.00;58621.06;4991781;28;20257;-52
2022/10/03 07:21:51;;;;;;;5.43;2.53;;;;;;;-145.23;100.00;58621.06;4984310;28;20755;-53
2022/10/03 07:24:48;;;;;;;10.10;2.43;;;;;;;-145.23;100.00;58621.06;4984624;28;20242;-52
2022/10/03 07:27:27;;;;;;;11.15;2.95;;;;;;;-145.23;100.00;58621.06;4996797;28;21154;-52
2022/10/03 07:30:04;;;;;;;6.88;1.75;;;;;;;-145.23;100.00;58621.06;4990744;28;20236;-52
2022/10/03 07:33:06;;;;;;;8.77;1.98;;;;;;;-145.23;100.00;58621.06;4993370;28;20233;-53
2022/10/03 07:38:58;;;;;;;11.25;3.25;;;;;;;-145.23;100.00;58621.06;5003851;28;20255;-53
2022/10/03 07:41:43;;;;;;;7.88;2.42;;;;;;;-145.23;100.00;58621.06;4998465;28;20236;-52
2022/10/03 07:44:44;;;;;;;5.63;2.17;;;;;;;-145.23;100.00;58621.06;4984056;28;20316;-53
2022/10/03 07:47:33;;;;;;;6.80;2.03;;;;;;;-145.23;100.00;58621.06;4952061;28;20233;-52
2022/10/03 07:50:41;;;;;;;5.28;1.40;;;;;;;-145.23;100.00;58621.06;4984831;28;21969;-52
2022/10/03 07:53:23;;;;;;;9.75;3.50;;;;;;;-145.23;100.00;58621.06;4968315;28;20233;-53
2022/10/03 07:55:59;;;;;;;6.97;2.28;;;;;;;-145.23;100.00;58621.06;4984715;28;20234;-51
2022/10/03 07:58:34;;;;;;;7.60;2.13;;;;;;;-145.23;100.00;58621.06;5001657;28;20674;-53
2022/10/03 08:01:13;;;;;;;9.20;2.80;;;;;;;-145.23;100.00;58621.06;5007720;28;20423;-53
2022/10/03 08:04:10;;;;;;;10.73;1.98;;;;;;;-145.23;100.00;58621.06;5013739;28;20237;-52
2022/10/03 08:06:42;;;;;;;12.35;3.38;;;;;;;-145.23;100.00;58621.06;5005187;28;20714;-52
2022/10/03 08:09:53;;;;;;;7.90;2.10;;;;;;;-145.23;100.00;58621.06;4996130;28;20759;-52
2022/10/03 08:12:32;;;;;;;12.13;2.95;;;;;;;-145.23;100.00;58621.06;4977985;28;20237;-54
2022/10/03 08:15:06;;;;;;;13.52;2.15;;;;;;;-145.23;100.00;58621.06;4986588;28;20233;-51
2022/10/03 08:18:00;;;;;;;8.65;2.28;;;;;;;-145.23;100.00;58621.06;5004937;28;20249;-55
2022/10/03 08:20:41;;;;;;;8.23;2.10;;;;;;;-145.23;100.00;58621.06;4997412;28;20229;-54
2022/10/03 08:23:26;;;;;;;5.47;2.22;;;;;;;-145.23;100.00;58621.06;4997174;28;20237;-52
2022/10/03 08:26:03;;;;;;;4.68;1.83;;;;;;;-145.23;100.00;58621.06;4991045;28;20229;-51
2022/10/03 08:28:52;;;;;;;10.38;2.08;;;;;;;-145.23;100.00;58621.06;4986996;28;20237;-51
2022/10/03 08:31:34;;;;;;;11.23;2.50;;;;;;;-145.23;100.00;58621.06;4992838;28;22423;-53
2022/10/03 08:34:36;;;;;;;7.55;2.20;;;;;;;-145.23;100.00;58621.06;4984980;28;20336;-52
2022/10/03 08:37:27;;;;;;;10.50;2.45;;;;;;;-145.23;100.00;58621.06;4985120;28;20677;-53
2022/10/03 08:40:26;;;;;;;11.15;2.95;;;;;;;-145.23;100.00;58621.06;4993627;28;20234;-51
2022/10/03 08:43:25;;;;;;;16.58;2.30;;;;;;;-145.23;100.00;58621.06;4993358;28;20232;-52
2022/10/03 08:46:01;;;;;;;6.38;2.22;;;;;;;-145.23;100.00;58621.06;4985034;28;20308;-51
2022/10/03 08:49:12;;;;;;;14.18;2.95;;;;;;;-145.23;100.00;58621.06;4993473;28;20833;-52
2022/10/03 08:51:59;;;;;;;7.22;2.10;;;;;;;-145.23;100.00;58621.06;4920842;29;20231;-53
2022/10/03 08:54:49;;;;;;;8.07;2.28;;;;;;;-145.23;100.00;58621.06;4984479;28;20230;-51
2022/10/03 08:57:26;;;;;;;8.90;2.70;;;;;;;-145.23;100.00;58621.06;4980766;28;20230;-53
2022/10/03 09:00:13;;;;;;;8.45;2.17;;;;;;;-145.23;100.00;58621.06;4991180;28;20234;-51
2022/10/03 09:03:01;;;;;;;4.68;2.00;;;;;;;-145.23;100.00;58621.06;4994223;28;20225;-52
2022/10/03 09:05:57;;;;;;;6.25;2.13;;;;;;;-145.23;100.00;58621.06;4987558;28;20324;-51
2022/10/03 09:08:52;;;;;;;6.15;2.38;;;;;;;-145.23;100.00;58621.06;4988928;28;20236;-51
2022/10/03 09:11:53;;;;;;;5.68;2.53;;;;;;;-145.23;100.00;58621.06;4983215;28;20695;-53
2022/10/03 09:14:42;;;;;;;5.57;2.45;;;;;;;-145.23;100.00;58621.06;4985820;28;20321;-53
2022/10/03 09:17:26;;;;;;;9.48;2.92;;;;;;;-145.23;100.00;58621.06;5000987;28;20240;-51
2022/10/03 09:20:23;;;;;;;7.53;2.17;;;;;;;-145.23;100.00;58621.06;4987906;28;20229;-51
2022/10/03 09:23:02;;;;;;;5.15;1.55;;;;;;;-145.23;100.00;58621.06;4986684;28;20276;-53
2022/10/03 09:25:59;;;;;;;7.63;2.25;;;;;;;-145.23;100.00;58621.06;5006824;28;20327;-51
2022/10/03 09:28:56;;;;;;;7.60;2.75;;;;;;;-145.23;100.00;58621.06;5004950;28;20229;-53
2022/10/03 09:31:58;;;;;;;11.10;3.78;;;;;;;-145.23;100.00;58621.06;4981657;28;20577;-57
2022/10/03 09:35:07;;;;;;;10.50;3.63;;;;;;;-145.23;100.00;58621.06;4993224;28;20232;-52
2022/10/03 09:38:00;;;;;;;5.65;2.13;;;;;;;-145.23;100.00;58621.06;4953417;28;20700;-52
2022/10/03 09:41:02;;;;;;;8.32;1.85;;;;;;;-145.23;100.00;58621.06;4985878;28;20253;-52
2022/10/03 09:44:14;;;;;;;8.45;2.45;;;;;;;-145.23;100.00;58621.06;4991344;28;20229;-52
2022/10/03 09:50:08;;;;;;;5.72;2.22;;;;;;;-145.23;100.00;58621.06;4994635;28;20282;-51
2022/10/03 09:52:50;;;;;;;12.00;2.72;;;;;;;-145.23;100.00;58621.06;5000888;28;20264;-52
2022/10/03 09:55:31;;;;;;;12.10;3.17;;;;;;;-145.23;100.00;58621.06;5003196;28;20257;-51
2022/10/03 09:58:21;;;;;;;7.30;1.98;;;;;;;-145.23;100.00;58621.06;5002272;28;20245;-53
2022/10/03 10:01:07;;;;;;;10.43;2.42;;;;;;;-145.23;100.00;58621.06;4996835;28;20238;-51
2022/10/03 10:04:06;;;;;;;7.80;3.05;;;;;;;-145.23;100.00;58621.06;5000057;28;20237;-53
2022/10/03 10:06:56;;;;;;;8.48;2.42;;;;;;;-145.23;100.00;58621.06;4983422;28;20229;-52
2022/10/03 10:09:40;;;;;;;6.80;2.30;;;;;;;-145.23;100.00;58621.06;5003240;28;20281;-53
2022/10/03 10:12:27;;;;;;;7.10;2.17;;;;;;;-145.23;100.00;58621.06;5006170;28;20233;-52
2022/10/03 10:15:06;;;;;;;5.53;2.15;;;;;;;-145.23;100.00;58621.06;5001045;28;20244;-52
2022/10/03 10:18:09;;;;;;;5.63;2.10;;;;;;;-145.23;100.00;58621.06;5001737;28;20241;-52
2022/10/03 10:21:16;;;;;;;9.75;2.40;;;;;;;-145.23;100.00;58621.06;5001854;28;20233;-53
2022/10/03 10:23:51;;;;;;;7.38;2.80;;;;;;;-145.23;100.00;58621.06;5001026;28;20248;-52
2022/10/03 10:26:46;;;;;;;10.75;2.83;;;;;;;-145.23;100.00;58621.06;5001562;28;20236;-52
2022/10/03 10:29:27;;;;;;;5.80;1.70;;;;;;;-145.23;100.00;58621.06;4995042;28;20604;-52
2022/10/03 10:32:30;;;;;;;8.43;2.25;;;;;;;-145.23;100.00;58621.06;4999177;28;20233;-52
2022/10/03 10:35:27;;;;;;;8.05;2.25;;;;;;;-145.23;100.00;58621.06;4997667;28;20786;-50
2022/10/03 10:38:25;;;;;;;5.85;1.95;;;;;;;-145.23;100.00;58621.06;4990145;28;20722;-52
2022/10/03 10:41:19;;;;;;;7.35;1.98;;;;;;;-145.23;100.00;58621.06;4997014;28;20233;-52
2022/10/03 10:44:30;;;;;;;5.82;2.08;;;;;;;-145.23;100.00;58621.06;4996119;28;20262;-52
2022/10/03 10:47:36;;;;;;;5.82;1.75;;;;;;;-145.23;100.00;58621.06;4992500;28;20892;-53
2022/10/03 10:50:39;;;;;;;3.40;1.50;;;;;;;-145.23;100.00;58621.06;4997086;28;20237;-51
2022/10/03 10:53:43;;;;;;;4.85;1.70;;;;;;;-145.23;100.00;58621.06;4985678;28;20229;-51
2022/10/03 10:56:49;;;;;;;6.78;2.00;;;;;;;-145.23;100.00;58621.06;5000902;28;20600;-52
2022/10/03 10:59:57;;;;;;;5.30;1.33;;;;;;;-145.23;100.00;58621.06;5000444;28;20695;-52
2022/10/03 11:05:51;;;;;;;8.85;1.98;;;;;;;15.46;86.37;101668.53;5031036;27;20577;-51
2022/10/03 11:08:49;;;;;;;8.30;1.85;;;;;;;15.35;86.79;101662.44;5006446;28;20785;-53
2022/10/03 11:11:43;;;;;;;7.95;2.13;;;;;;;15.26;88.53;101660.72;5012190;28;20233;-51
2022/10/03 11:14:55;;;;;;;8.73;2.08;;;;;;;15.16;89.35;101653.75;5009211;28;20709;-52
2022/10/03 11:18:01;;;;;;;4.80;1.85;;;;;;;15.11;89.59;101660.81;5038119;28;20231;-51
2022/10/03 11:21:02;;;;;;;3.72;1.75;;;;;;;15.02;90.29;101658.19;5043084;28;20310;-53
2022/10/03 11:23:56;;;;;;;4.45;2.05;;;;;;;15.06;89.95;101659.97;5046287;28;20246;-52
2022/10/03 11:26:55;;;;;;;6.75;2.22;;;;;;;15.02;90.88;101666.13;5029751;28;20228;-51
2022/10/03 11:30:01;;;;;;;7.55;2.20;;;;;;;14.93;93.00;101667.06;5037266;28;20378;-51
2022/10/03 11:33:25;;;;;;;8.73;1.95;;;;;;;14.93;94.78;101671.47;5030025;28;20263;-52
2022/10/03 11:36:28;;;;;;;3.60;1.35;;;;;;;14.84;95.80;101671.50;4971890;28;20229;-52
2022/10/03 11:39:03;;;;;;;4.70;1.75;;;;;;;14.83;96.93;101675.03;4970119;28;20817;-53
2022/10/03 11:41:41;;;;;;;12.02;1.63;;;;;;;15.03;95.79;101670.56;5002273;28;20228;-52
2022/10/03 11:44:22;;;;;;;6.95;1.63;;;;;;;15.03;96.44;101670.56;5016574;28;22242;-52
2022/10/03 11:46:54;;;;;;;6.95;1.55;;;;;;;14.98;97.48;101675.84;5015009;28;20236;-52
2022/10/03 11:49:50;;;;;;;4.20;1.60;;;;;;;14.87;98.47;101676.78;5034964;28;20225;-52
2022/10/03 11:52:27;;;;;;;7.20;1.73;;;;;;;14.72;100.00;101678.59;5031373;28;20217;-52
2022/10/03 11:55:17;;;;;;;8.88;2.00;;;;;;;14.72;100.00;101672.44;5032664;28;20242;-52
2022/10/03 11:57:48;;;;;;;6.72;2.33;;;;;;;14.83;100.00;101669.75;5030374;28;20745;-51
2022/10/03 12:00:18;;;;;;;6.57;2.20;;;;;;;14.83;100.00;101664.47;5015090;28;20229;-51
2022/10/03 12:03:00;;;;;;;4.13;1.30;;;;;;;14.93;100.00;101666.19;5009370;28;20243;-52
2022/10/03 12:05:46;;;;;;;5.25;2.22;;;;;;;14.79;100.00;101669.75;5016363;28;20240;-53
2022/10/03 12:11:12;;;;;;;8.88;2.60;;;;;;;14.86;100.00;101653.88;5012715;28;20741;-52
2022/10/03 12:13:46;;;;;;;9.20;3.05;;;;;;;14.90;100.00;101651.19;5030401;28;20612;-51
2022/10/03 12:16:20;;;;;;;8.50;2.05;;;;;;;14.98;100.00;101649.38;5002118;28;20321;-51
2022/10/03 12:18:54;;;;;;;3.75;1.70;;;;;;;15.09;100.00;101641.41;4997653;28;20288;-52
2022/10/03 12:21:24;;;;;;;12.52;2.42;;;;;;;15.20;100.00;101644.03;4998506;28;20507;-54
2022/10/03 12:24:13;;;;;;;6.35;1.80;;;;;;;15.28;99.12;101647.50;5003063;28;20320;-52
2022/10/03 12:26:51;;;;;;;9.90;2.50;;;;;;;15.20;97.33;101638.72;4992868;28;20307;-55
2022/10/03 12:29:20;;;;;;;7.97;2.42;;;;;;;15.07;98.46;101651.13;4996975;28;20862;-52
2022/10/03 12:31:58;;;;;;;6.10;1.95;;;;;;;15.11;99.15;101646.69;4997640;28;20663;-50
2022/10/03 12:34:36;;;;;;;5.20;1.60;;;;;;;14.98;99.74;101649.38;4997790;28;20233;-52
2022/10/03 12:37:18;;;;;;;3.35;1.52;;;;;;;15.00;100.00;101646.75;4996955;28;20244;-52
2022/10/03 12:40:04;;;;;;;7.38;2.10;;;;;;;15.35;98.58;101650.97;4999574;28;20233;-51
2022/10/03 12:42:34;;;;;;;5.72;1.95;;;;;;;15.57;96.56;101642.00;5019401;28;20224;-52
2022/10/03 12:45:05;;;;;;;5.22;2.00;;;;;;;15.60;96.42;101649.94;5021032;28;20331;-52
2022/10/03 12:47:59;;;;;;;5.10;1.88;;;;;;;15.59;96.64;101642.88;5008797;28;20239;-55
2022/10/03 12:50:38;;;;;;;5.20;0.98;;;;;;;15.63;96.10;101639.31;5016779;28;20764;-51